KBRD/BRD METAR and TAF weather

Enter ICAO airport designator
Station Type Date Time Source
KBRD METAR 2019/12/09 06:03 UTC NOAA

KBRD 090603Z AUTO 04015KT 4SM -SN SCT012 OVC020 M07/M09 A2976 RMK AO2 P0000 T10671094


Station Type Date Time Source
KBRD Decoded METAR 2019/12/09 06:03 UTC NOAA

BRAINERD-CROW WING CO AIRPORT , MN, United States (KBRD) 46-24N 94-08W 372M
Dec 09, 2019 - 01:03 AM EST / 2019.12.09 0603 UTC
Wind: from the NE (040 degrees) at 17 MPH (15 KT):0
Visibility: 4 mile(s):0
Sky conditions: overcast
Weather: light snow
Precipitation last hour: A trace
Temperature: 19.9 F (-6.7 C)
Windchill: 5 F (-15 C):1
Dew Point: 15.1 F (-9.4 C)
Relative Humidity: 81%
Pressure (altimeter): 29.76 in. Hg (1007 hPa)
ob: KBRD 090603Z AUTO 04015KT 4SM -SN SCT012 OVC020 M07/M09 A2976 RMK AO2 P0000 T10671094
cycle: 6

Station Type Date Time Source
KBRD TAF 2019/12/09 06:42 UTC NOAA

TAF KBRD 090540Z 0906/1006 02014KT 3SM -SN BR OVC007
FM090800 02011G19KT 1SM -SN BR OVC007
FM091500 34012G20KT 2SM -SN BKN010
FM091700 34011G17KT 6SM -SN BKN014
FM092000 33011KT P6SM BKN024
FM092200 32008KT P6SM SCT150

Example: see airport list